createdAt,value
2022-07-25T00:01:39.533Z,25.40
2022-07-25T00:06:43.515Z,25.36
2022-07-25T00:11:46.599Z,25.30
2022-07-25T00:16:50.756Z,25.06
2022-07-25T00:21:53.692Z,24.61
2022-07-25T00:26:56.530Z,24.54
2022-07-25T00:32:00.823Z,24.32
2022-07-25T00:37:06.101Z,24.49
2022-07-25T00:42:09.553Z,24.66
2022-07-25T00:47:13.729Z,24.83
2022-07-25T00:52:16.580Z,24.82
2022-07-25T00:57:19.420Z,24.81
2022-07-25T01:02:24.226Z,24.84
2022-07-25T01:07:27.341Z,24.85
2022-07-25T01:12:30.326Z,24.82
2022-07-25T01:17:34.695Z,24.83
2022-07-25T01:22:38.988Z,24.84
2022-07-25T01:27:42.942Z,24.79
2022-07-25T01:32:46.168Z,24.55
2022-07-25T01:37:50.375Z,24.74
2022-07-25T01:42:53.263Z,24.77
2022-07-25T01:47:56.949Z,24.61
2022-07-25T01:53:01.510Z,24.65
2022-07-25T01:58:06.333Z,24.52
2022-07-25T02:03:28.167Z,24.23
2022-07-25T02:08:32.857Z,24.26
2022-07-25T02:13:36.630Z,24.27
2022-07-25T02:18:40.773Z,24.42
2022-07-25T02:23:46.352Z,24.46
2022-07-25T02:28:50.462Z,24.45
2022-07-25T02:33:53.311Z,24.42
2022-07-25T02:38:57.513Z,24.39
2022-07-25T02:44:00.527Z,24.25
2022-07-25T02:49:05.782Z,24.22
2022-07-25T02:54:09.991Z,24.33
2022-07-25T02:59:13.535Z,24.14
2022-07-25T03:04:17.105Z,24.02
2022-07-25T03:09:21.602Z,24.09
2022-07-25T03:14:24.433Z,23.83
2022-07-25T03:19:27.348Z,23.93
2022-07-25T03:24:31.614Z,23.87
2022-07-25T03:29:34.705Z,23.86
2022-07-25T03:34:38.831Z,23.89
2022-07-25T03:39:43.366Z,23.75
2022-07-25T03:44:46.250Z,23.74
2022-07-25T03:49:49.181Z,23.68
2022-07-25T03:54:53.668Z,23.56
2022-07-25T03:59:56.551Z,23.31
2022-07-25T04:05:01.928Z,23.34
2022-07-25T04:10:07.266Z,23.45
2022-07-25T04:15:10.845Z,23.21
2022-07-25T04:20:13.882Z,23.37
2022-07-25T04:25:18.167Z,23.29
2022-07-25T04:30:23.885Z,23.30
2022-07-25T04:35:27.751Z,22.85
2022-07-25T04:40:32.033Z,22.95
2022-07-25T04:45:35.650Z,23.14
2022-07-25T04:50:38.959Z,23.22
2022-07-25T05:01:08.412Z,23.19
2022-07-25T05:06:11.415Z,23.39
2022-07-25T05:11:18.097Z,23.40
2022-07-25T05:16:20.973Z,23.28
2022-07-25T05:21:23.910Z,23.63
2022-07-25T05:26:28.073Z,23.74
2022-07-25T05:31:30.909Z,24.07
2022-07-25T05:36:34.017Z,24.18
2022-07-25T05:41:38.421Z,24.18
2022-07-25T05:46:41.295Z,23.96
2022-07-25T05:51:44.192Z,23.97
2022-07-25T05:56:48.362Z,23.90
2022-07-25T06:01:52.512Z,24.04
2022-07-25T06:06:55.358Z,23.77
2022-07-25T06:12:01.149Z,23.41
2022-07-25T06:17:05.577Z,22.80
2022-07-25T06:22:09.399Z,22.44
2022-07-25T06:27:17.256Z,22.31
2022-07-25T06:32:23.405Z,22.30
2022-07-25T06:37:28.235Z,22.26
2022-07-25T06:42:33.435Z,22.23
2022-07-25T06:47:36.391Z,22.32
2022-07-25T06:52:39.403Z,22.38
2022-07-25T06:57:44.458Z,22.31
2022-07-25T07:02:53.075Z,22.72
2022-07-25T07:07:56.070Z,22.64
2022-07-25T07:13:08.179Z,22.00
2022-07-25T07:18:11.041Z,22.56
2022-07-25T07:23:17.081Z,22.56
2022-07-25T07:28:22.770Z,22.04
2022-07-25T07:33:25.597Z,22.13
2022-07-25T07:38:28.385Z,22.39
2022-07-25T07:43:32.693Z,22.34
2022-07-25T07:48:36.138Z,22.43
2022-07-25T07:53:56.539Z,22.39
2022-07-25T07:59:00.905Z,23.10
2022-07-25T08:04:03.785Z,23.69
2022-07-25T08:09:07.174Z,23.09
2022-07-25T08:14:11.687Z,23.03
2022-07-25T08:19:14.498Z,22.70
2022-07-25T08:24:18.386Z,23.03
2022-07-25T08:29:27.774Z,23.39
2022-07-25T08:34:31.220Z,23.14
2022-07-25T08:39:59.906Z,23.54
2022-07-25T08:45:06.630Z,24.05
2022-07-25T08:50:11.955Z,23.61
2022-07-25T08:55:20.045Z,23.38
2022-07-25T09:00:26.327Z,23.77
2022-07-25T09:05:30.443Z,23.71
2022-07-25T09:10:36.034Z,23.82
2022-07-25T09:15:41.988Z,23.73
2022-07-25T09:21:14.576Z,23.66
2022-07-25T09:26:18.076Z,23.73
2022-07-25T09:31:22.833Z,23.97
2022-07-25T09:36:26.139Z,23.75
2022-07-25T09:41:35.335Z,23.92
2022-07-25T09:46:39.638Z,23.40
2022-07-25T09:51:43.298Z,23.23
2022-07-25T09:56:46.176Z,23.64
2022-07-25T10:01:56.916Z,23.55
2022-07-25T10:07:05.244Z,23.36
2022-07-25T10:12:10.532Z,23.92
2022-07-25T10:17:25.220Z,23.60
2022-07-25T10:22:55.222Z,22.84
2022-07-25T10:28:03.726Z,22.96
2022-07-25T10:33:14.313Z,23.28
2022-07-25T10:38:25.410Z,22.87
2022-07-25T10:43:52.294Z,22.91
2022-07-25T10:49:00.747Z,22.85
2022-07-25T10:54:13.993Z,23.51
2022-07-25T10:59:30.377Z,24.34
2022-07-25T11:04:34.591Z,24.90
2022-07-25T11:09:37.616Z,25.02
2022-07-25T11:14:42.725Z,25.19
2022-07-25T11:19:56.086Z,25.00
2022-07-25T11:24:59.573Z,24.21
2022-07-25T11:30:09.520Z,25.22
2022-07-25T11:35:16.961Z,25.04
2022-07-25T11:40:21.435Z,25.10
2022-07-25T11:45:25.553Z,24.04
2022-07-25T11:50:33.255Z,23.83
2022-07-25T11:55:40.196Z,23.84
2022-07-25T12:00:46.420Z,23.83
2022-07-25T12:05:51.009Z,24.17
2022-07-25T12:10:56.274Z,24.27
2022-07-25T12:16:00.673Z,24.11
2022-07-25T12:21:07.373Z,24.45
2022-07-25T12:26:11.471Z,24.43
2022-07-25T12:31:14.396Z,24.40
2022-07-25T12:36:18.700Z,25.08
2022-07-25T12:41:23.499Z,24.94
2022-07-25T12:46:26.446Z,24.79
2022-07-25T12:51:30.872Z,24.04
2022-07-25T12:56:33.762Z,24.22
2022-07-25T13:01:36.725Z,24.87
2022-07-25T13:06:41.089Z,24.57
2022-07-25T13:11:44.100Z,23.75
2022-07-25T13:17:07.681Z,24.32
2022-07-25T13:22:12.641Z,23.91
2022-07-25T13:27:15.493Z,23.86
2022-07-25T13:32:19.109Z,24.31
2022-07-25T13:37:23.497Z,24.45
2022-07-25T13:42:28.776Z,24.80
2022-07-25T13:47:35.620Z,24.44
2022-07-25T13:52:39.905Z,24.23
2022-07-25T13:57:42.781Z,23.78
2022-07-25T14:02:46.600Z,23.92
2022-07-25T14:07:50.849Z,23.77
2022-07-25T14:12:54.118Z,23.85
2022-07-25T14:17:56.981Z,24.84
2022-07-25T14:23:01.523Z,24.28
2022-07-25T14:28:04.925Z,24.60
2022-07-25T14:33:07.773Z,24.63
2022-07-25T14:38:12.397Z,24.31
2022-07-25T14:43:17.993Z,24.23
2022-07-25T14:48:21.230Z,23.87
2022-07-25T14:53:25.498Z,23.74
2022-07-25T14:58:28.399Z,23.76
2022-07-25T15:03:31.352Z,23.64
2022-07-25T15:08:35.878Z,24.16
2022-07-25T15:13:38.840Z,23.88
2022-07-25T15:19:05.343Z,23.87
2022-07-25T15:24:07.154Z,23.75
2022-07-25T15:29:11.904Z,23.71
2022-07-25T15:34:14.973Z,23.39
2022-07-25T15:39:19.560Z,23.26
2022-07-25T15:44:22.446Z,23.42
2022-07-25T15:49:25.758Z,23.47
2022-07-25T15:54:30.029Z,23.46
2022-07-25T15:59:32.990Z,23.35
2022-07-25T16:04:35.747Z,23.46
2022-07-25T16:09:39.978Z,23.56
2022-07-25T16:14:45.423Z,23.62
2022-07-25T16:19:48.643Z,23.32
2022-07-25T16:24:53.109Z,22.90
2022-07-25T16:29:56.289Z,23.05
2022-07-25T16:34:59.405Z,22.72
2022-07-25T16:40:04.053Z,22.53
2022-07-25T16:45:08.020Z,22.65
2022-07-25T16:50:10.996Z,22.51
2022-07-25T16:55:15.218Z,22.34
2022-07-25T17:00:18.433Z,22.06
2022-07-25T17:05:21.385Z,22.20
2022-07-25T17:10:25.770Z,22.22
2022-07-25T17:15:28.752Z,21.88
2022-07-25T17:20:31.611Z,22.03
2022-07-25T17:25:35.991Z,21.67
2022-07-25T17:30:38.964Z,21.52
2022-07-25T17:35:41.900Z,21.65
2022-07-25T17:40:49.045Z,21.80
2022-07-25T17:45:51.900Z,21.58
2022-07-25T17:50:55.877Z,21.60
2022-07-25T17:56:00.097Z,21.44
2022-07-25T18:01:09.892Z,21.73
2022-07-25T18:06:13.531Z,21.64
2022-07-25T18:11:17.662Z,21.48
2022-07-25T18:16:20.594Z,21.43
2022-07-25T18:21:24.873Z,21.60
2022-07-25T18:26:29.479Z,21.62
2022-07-25T18:31:32.495Z,21.88
2022-07-25T18:36:36.853Z,21.55
2022-07-25T18:41:41.095Z,21.08
2022-07-25T18:46:45.679Z,21.14
2022-07-25T18:51:48.659Z,21.19
2022-07-25T18:56:53.037Z,21.39
2022-07-25T19:01:56.607Z,20.88
2022-07-25T19:06:59.522Z,20.54
2022-07-25T19:12:03.819Z,20.65
2022-07-25T19:17:06.942Z,20.72
2022-07-25T19:22:09.867Z,20.52
2022-07-25T19:27:14.534Z,20.37
2022-07-25T19:32:18.217Z,20.30
2022-07-25T19:37:21.559Z,20.22
2022-07-25T19:42:25.743Z,20.27
2022-07-25T19:47:28.669Z,20.20
2022-07-25T19:52:31.570Z,20.23
2022-07-25T19:57:35.857Z,20.13
2022-07-25T20:02:38.969Z,20.09
2022-07-25T20:07:42.918Z,20.23
2022-07-25T20:12:47.333Z,20.29
2022-07-25T20:17:50.206Z,20.19
2022-07-25T20:22:54.728Z,19.72
2022-07-25T20:28:00.644Z,20.06
2022-07-25T20:33:05.563Z,20.15
2022-07-25T20:38:12.404Z,20.27
2022-07-25T20:43:18.343Z,20.15
2022-07-25T20:48:21.334Z,20.27
2022-07-25T20:53:24.516Z,20.61
2022-07-25T20:58:28.713Z,20.50
2022-07-25T21:03:32.073Z,20.50
2022-07-25T21:08:34.961Z,20.48
2022-07-25T21:13:40.496Z,20.57
2022-07-25T21:18:43.785Z,20.23
2022-07-25T21:23:46.685Z,20.45
2022-07-25T21:28:50.870Z,20.32
2022-07-25T21:33:53.888Z,20.42
2022-07-25T21:38:58.205Z,20.47
2022-07-25T21:44:03.044Z,20.59
2022-07-25T21:49:42.056Z,20.68
2022-07-25T21:54:48.331Z,20.89
2022-07-25T21:59:52.537Z,20.82
2022-07-25T22:04:55.508Z,20.94
2022-07-25T22:09:58.518Z,21.19
2022-07-25T22:15:04.114Z,20.97
2022-07-25T22:20:07.890Z,20.71
2022-07-25T22:25:11.236Z,20.74
2022-07-25T22:30:19.376Z,20.48
2022-07-25T22:35:22.720Z,20.47
2022-07-25T22:40:25.895Z,20.64
2022-07-25T22:45:30.390Z,20.56
2022-07-25T22:50:35.077Z,20.53
2022-07-25T22:55:38.180Z,20.60
2022-07-25T23:00:42.692Z,20.28
2022-07-25T23:05:45.579Z,20.32
2022-07-25T23:10:48.704Z,19.99
2022-07-25T23:15:53.051Z,20.00
2022-07-25T23:20:56.230Z,20.08
2022-07-25T23:26:00.273Z,19.89
2022-07-25T23:31:04.711Z,19.94
2022-07-25T23:36:09.327Z,19.98
2022-07-25T23:41:12.129Z,20.08
2022-07-25T23:46:16.431Z,20.23
2022-07-25T23:51:21.370Z,20.36
2022-07-25T23:56:24.480Z,20.30
